createdAt,value
2019-03-06T00:01:00.845Z,4.28
2019-03-06T00:03:27.239Z,7.67
2019-03-06T00:05:53.885Z,5.70
2019-03-06T00:08:20.487Z,5.25
2019-03-06T00:10:47.064Z,5.40
2019-03-06T00:13:13.756Z,3.65
2019-03-06T00:15:40.280Z,8.38
2019-03-06T00:18:06.713Z,5.70
2019-03-06T00:20:33.095Z,8.13
2019-03-06T00:22:59.640Z,7.30
2019-03-06T00:25:26.310Z,8.78
2019-03-06T00:27:52.804Z,8.83
2019-03-06T00:30:19.695Z,6.95
2019-03-06T00:32:46.146Z,5.08
2019-03-06T00:35:24.357Z,4.30
2019-03-06T00:37:50.875Z,4.72
2019-03-06T00:40:36.343Z,7.37
2019-03-06T00:43:03.037Z,6.30
2019-03-06T00:45:29.533Z,4.80
2019-03-06T00:47:56.126Z,8.88
2019-03-06T00:50:22.683Z,9.33
2019-03-06T00:52:49.195Z,9.60
2019-03-06T00:55:16.038Z,6.55
2019-03-06T00:57:42.573Z,6.05
2019-03-06T01:00:26.056Z,5.97
2019-03-06T01:02:53.317Z,7.60
2019-03-06T01:05:20.308Z,7.45
2019-03-06T01:07:47.043Z,5.83
2019-03-06T01:10:14.860Z,5.58
2019-03-06T01:12:41.449Z,6.37
2019-03-06T01:15:10.439Z,6.00
2019-03-06T01:17:36.973Z,6.40
2019-03-06T01:20:07.292Z,7.90
2019-03-06T01:22:33.935Z,7.62
2019-03-06T01:25:00.494Z,9.45
2019-03-06T01:27:27.110Z,7.92
2019-03-06T01:29:53.746Z,7.30
2019-03-06T01:32:20.592Z,6.70
2019-03-06T01:34:54.659Z,6.67
2019-03-06T01:37:22.977Z,9.40
2019-03-06T01:39:57.196Z,9.13
2019-03-06T01:42:25.678Z,9.68
2019-03-06T01:44:52.517Z,8.98
2019-03-06T01:47:19.079Z,11.45
2019-03-06T01:49:45.792Z,8.95
2019-03-06T01:52:12.329Z,7.37
2019-03-06T01:54:38.702Z,6.75
2019-03-06T01:57:05.399Z,8.75
2019-03-06T01:59:32.118Z,8.53
2019-03-06T02:01:58.571Z,7.78
2019-03-06T02:04:25.085Z,8.10
2019-03-06T02:06:51.804Z,8.93
2019-03-06T02:09:19.717Z,9.20
2019-03-06T02:11:46.452Z,9.10
2019-03-06T02:14:12.886Z,9.20
2019-03-06T02:16:39.219Z,9.85
2019-03-06T02:19:06.365Z,8.93
2019-03-06T02:21:32.902Z,9.35
2019-03-06T02:23:59.334Z,9.15
2019-03-06T02:26:26.503Z,8.80
2019-03-06T02:28:52.814Z,8.98
2019-03-06T02:31:19.555Z,9.53
2019-03-06T02:33:46.091Z,9.25
2019-03-06T02:36:12.535Z,9.85
2019-03-06T02:38:39.060Z,9.43
2019-03-06T02:41:05.596Z,10.48
2019-03-06T02:43:32.540Z,10.08
2019-03-06T02:45:59.075Z,10.18
2019-03-06T02:48:25.711Z,12.13
2019-03-06T02:50:52.350Z,10.35
2019-03-06T02:53:18.987Z,9.50
2019-03-06T02:55:45.829Z,10.35
2019-03-06T02:58:23.016Z,11.12
2019-03-06T03:00:57.948Z,9.90
2019-03-06T03:03:26.439Z,9.43
2019-03-06T03:06:13.546Z,10.03
2019-03-06T03:08:39.986Z,10.08
2019-03-06T03:11:06.618Z,10.50
2019-03-06T03:13:33.253Z,9.60
2019-03-06T03:15:59.690Z,9.03
2019-03-06T03:18:26.530Z,8.63
2019-03-06T03:20:53.474Z,8.80
2019-03-06T03:23:20.110Z,9.50
2019-03-06T03:25:46.650Z,10.82
2019-03-06T03:28:13.166Z,10.03
2019-03-06T03:30:39.615Z,9.33
2019-03-06T03:33:06.463Z,11.30
2019-03-06T03:35:33.229Z,10.25
2019-03-06T03:37:59.958Z,10.85
2019-03-06T03:40:26.678Z,11.25
2019-03-06T03:42:53.931Z,10.08
2019-03-06T03:45:20.647Z,10.00
2019-03-06T03:47:47.217Z,10.53
2019-03-06T03:50:13.845Z,11.25
2019-03-06T03:52:40.792Z,11.10
2019-03-06T03:55:15.124Z,13.05
2019-03-06T03:57:42.053Z,16.25
2019-03-06T04:00:16.063Z,17.20
2019-03-06T04:02:42.621Z,16.05
2019-03-06T04:05:11.283Z,16.77
2019-03-06T04:07:37.923Z,15.63
2019-03-06T04:10:09.762Z,15.08
2019-03-06T04:12:36.725Z,18.50
2019-03-06T04:15:08.511Z,17.25
2019-03-06T04:17:35.726Z,18.48
2019-03-06T04:20:04.186Z,17.45
2019-03-06T04:22:30.952Z,18.17
2019-03-06T04:24:57.455Z,19.35
2019-03-06T04:27:24.285Z,15.93
2019-03-06T04:29:50.952Z,13.10
2019-03-06T04:32:17.943Z,14.93
2019-03-06T04:34:44.400Z,16.25
2019-03-06T04:37:10.792Z,15.43
2019-03-06T04:39:37.219Z,15.60
2019-03-06T04:42:03.831Z,15.95
2019-03-06T04:44:30.152Z,16.12
2019-03-06T04:46:56.579Z,16.32
2019-03-06T04:49:22.878Z,15.60
2019-03-06T04:51:49.369Z,14.47
2019-03-06T04:54:15.816Z,15.32
2019-03-06T04:56:42.287Z,15.08
2019-03-06T04:59:08.722Z,15.55
2019-03-06T05:01:35.031Z,13.95
2019-03-06T05:04:01.433Z,15.58
2019-03-06T05:06:27.831Z,14.38
2019-03-06T05:08:54.566Z,13.45
2019-03-06T05:11:20.967Z,15.13
2019-03-06T05:13:47.407Z,15.28
2019-03-06T05:16:13.743Z,15.05
2019-03-06T05:18:45.021Z,14.50
2019-03-06T05:21:11.353Z,13.50
2019-03-06T05:23:37.994Z,13.43
2019-03-06T05:26:04.505Z,14.47
2019-03-06T05:28:31.084Z,13.30
2019-03-06T05:30:57.675Z,12.82
2019-03-06T05:33:24.258Z,12.18
2019-03-06T05:36:27.126Z,11.63
2019-03-06T05:39:06.591Z,11.05
2019-03-06T05:41:32.999Z,11.85
2019-03-06T05:43:59.451Z,11.48
2019-03-06T05:46:25.787Z,10.98
2019-03-06T05:48:52.188Z,11.28
2019-03-06T05:51:18.619Z,11.45
2019-03-06T05:53:45.063Z,11.22
2019-03-06T05:56:11.483Z,9.78
2019-03-06T05:58:37.794Z,10.00
2019-03-06T06:01:04.479Z,9.48
2019-03-06T06:03:30.980Z,10.60
2019-03-06T06:05:57.509Z,10.72
2019-03-06T06:08:24.007Z,10.35
2019-03-06T06:10:50.549Z,10.88
2019-03-06T06:13:16.994Z,10.48
2019-03-06T06:15:43.375Z,12.23
2019-03-06T06:18:09.880Z,11.93
2019-03-06T06:20:36.268Z,12.13
2019-03-06T06:23:03.095Z,12.60
2019-03-06T06:25:31.536Z,12.47
2019-03-06T06:27:58.074Z,11.12
2019-03-06T06:30:25.155Z,11.75
2019-03-06T06:32:51.999Z,12.07
2019-03-06T06:35:18.432Z,11.78
2019-03-06T06:37:44.860Z,12.93
2019-03-06T06:40:14.559Z,12.53
2019-03-06T06:42:41.198Z,13.55
2019-03-06T06:45:14.226Z,13.03
2019-03-06T06:48:13.328Z,14.55
2019-03-06T06:51:01.743Z,13.98
2019-03-06T06:53:33.612Z,12.30
2019-03-06T06:56:50.308Z,12.90
2019-03-06T06:59:43.547Z,12.50
2019-03-06T07:02:58.559Z,13.75
2019-03-06T07:05:29.640Z,12.65
2019-03-06T07:08:00.786Z,12.73
2019-03-06T07:10:45.575Z,13.60
2019-03-06T07:13:12.348Z,13.38
2019-03-06T07:15:55.843Z,14.45
2019-03-06T07:18:26.880Z,13.65
2019-03-06T07:21:10.032Z,13.03
2019-03-06T07:23:56.545Z,12.45
2019-03-06T07:28:51.055Z,10.82
2019-03-06T07:31:28.271Z,10.23
2019-03-06T07:33:56.474Z,10.55
2019-03-06T07:36:41.563Z,10.18
2019-03-06T07:39:10.063Z,9.03
2019-03-06T07:41:38.541Z,10.10
2019-03-06T07:44:07.130Z,8.73
2019-03-06T07:46:50.371Z,8.58
2019-03-06T07:49:21.631Z,8.33
2019-03-06T07:51:56.505Z,8.53
2019-03-06T07:54:24.719Z,9.50
2019-03-06T07:56:56.097Z,9.35
2019-03-06T07:59:22.584Z,8.63
2019-03-06T08:02:03.437Z,8.73
2019-03-06T08:04:30.100Z,8.20
2019-03-06T08:06:58.579Z,7.40
2019-03-06T08:09:25.026Z,8.88
2019-03-06T08:11:57.551Z,8.05
2019-03-06T08:14:38.050Z,8.23
2019-03-06T08:17:06.480Z,8.05
2019-03-06T08:19:51.247Z,8.20
2019-03-06T08:22:19.652Z,7.37
2019-03-06T08:24:47.863Z,7.03
2019-03-06T08:27:14.376Z,7.70
2019-03-06T08:29:41.143Z,7.90
2019-03-06T08:32:09.347Z,7.97
2019-03-06T08:34:36.099Z,8.30
2019-03-06T08:37:02.530Z,9.30
2019-03-06T08:39:29.026Z,10.30
2019-03-06T08:41:55.462Z,9.68
2019-03-06T08:44:21.795Z,9.45
2019-03-06T08:47:02.396Z,9.40
2019-03-06T08:49:38.006Z,8.28
2019-03-06T08:52:04.504Z,8.23
2019-03-06T08:54:44.816Z,7.78
2019-03-06T08:57:29.771Z,7.90
2019-03-06T08:59:58.185Z,7.58
2019-03-06T09:02:35.553Z,6.92
2019-03-06T09:05:22.680Z,8.05
2019-03-06T09:07:50.886Z,8.03
2019-03-06T09:10:23.986Z,7.50
2019-03-06T09:12:54.926Z,7.25
2019-03-06T09:15:32.308Z,7.53
2019-03-06T09:18:09.382Z,7.90
2019-03-06T09:20:46.892Z,7.42
2019-03-06T09:23:23.493Z,7.58
2019-03-06T09:25:51.215Z,7.55
2019-03-06T09:28:17.744Z,6.90
2019-03-06T09:30:48.642Z,6.58
2019-03-06T09:33:22.945Z,7.15
2019-03-06T09:35:51.248Z,6.72
2019-03-06T09:38:31.398Z,6.53
2019-03-06T09:41:00.103Z,5.75
2019-03-06T09:43:31.407Z,5.30
2019-03-06T09:46:03.212Z,6.33
2019-03-06T09:48:48.144Z,4.90
2019-03-06T09:51:28.470Z,4.78
2019-03-06T09:53:57.018Z,4.95
2019-03-06T09:56:25.302Z,4.78
2019-03-06T09:59:02.414Z,4.25
2019-03-06T10:01:31.091Z,3.52
2019-03-06T10:03:59.393Z,4.25
2019-03-06T10:06:27.716Z,4.10
2019-03-06T10:08:58.840Z,3.40
2019-03-06T10:11:39.827Z,4.50
2019-03-06T10:14:20.630Z,4.40
2019-03-06T10:16:49.215Z,4.00
2019-03-06T10:19:29.984Z,3.70
2019-03-06T10:21:59.188Z,4.28
2019-03-06T10:24:25.311Z,4.20
2019-03-06T10:26:51.778Z,4.62
2019-03-06T10:29:18.448Z,4.05
2019-03-06T10:31:44.858Z,3.80
2019-03-06T10:34:11.553Z,4.85
2019-03-06T10:36:38.161Z,4.95
2019-03-06T10:39:05.069Z,4.90
2019-03-06T10:41:31.878Z,4.90
2019-03-06T10:43:59.133Z,4.65
2019-03-06T10:46:25.843Z,4.42
2019-03-06T10:48:52.450Z,4.62
2019-03-06T10:51:19.188Z,6.15
2019-03-06T10:53:46.593Z,4.58
2019-03-06T10:56:13.527Z,4.33
2019-03-06T10:58:40.123Z,4.40
2019-03-06T11:01:07.742Z,4.45
2019-03-06T11:03:39.055Z,4.58
2019-03-06T11:06:06.058Z,4.67
2019-03-06T11:08:32.709Z,4.55
2019-03-06T11:10:59.383Z,4.33
2019-03-06T11:13:26.107Z,4.30
2019-03-06T11:15:55.665Z,4.35
2019-03-06T11:18:21.479Z,3.80
2019-03-06T11:20:48.002Z,3.85
2019-03-06T11:23:14.603Z,3.95
2019-03-06T11:25:41.469Z,4.45
2019-03-06T11:28:10.983Z,4.53
2019-03-06T11:30:57.997Z,4.67
2019-03-06T11:33:25.019Z,4.60
2019-03-06T11:35:58.043Z,4.37
2019-03-06T11:38:25.277Z,4.12
2019-03-06T11:40:51.706Z,4.92
2019-03-06T11:43:18.190Z,4.60
2019-03-06T11:45:45.098Z,3.75
2019-03-06T11:48:11.782Z,3.70
2019-03-06T11:50:41.136Z,4.55
2019-03-06T11:53:07.683Z,4.87
2019-03-06T11:55:34.526Z,5.20
2019-03-06T11:58:01.062Z,4.58
2019-03-06T12:00:30.773Z,4.42
2019-03-06T12:02:57.499Z,4.83
2019-03-06T12:05:24.300Z,4.72
2019-03-06T12:07:50.834Z,5.05
2019-03-06T12:10:18.141Z,5.42
2019-03-06T12:12:44.705Z,5.55
2019-03-06T12:15:12.580Z,5.67
2019-03-06T12:17:38.968Z,5.95
2019-03-06T12:20:08.594Z,6.20
2019-03-06T12:22:35.099Z,5.83
2019-03-06T12:25:01.860Z,5.25
2019-03-06T12:27:28.616Z,6.00
2019-03-06T12:29:55.274Z,5.47
2019-03-06T12:32:21.613Z,5.30
2019-03-06T12:34:48.371Z,5.10
2019-03-06T12:37:15.079Z,5.72
2019-03-06T12:39:42.220Z,4.80
2019-03-06T12:42:14.330Z,4.90
2019-03-06T12:44:37.011Z,4.97
2019-03-06T12:47:03.921Z,4.60
2019-03-06T12:49:32.491Z,4.62
2019-03-06T12:51:59.019Z,4.55
2019-03-06T12:54:25.505Z,5.08
2019-03-06T12:56:52.146Z,4.87
2019-03-06T12:59:18.709Z,5.05
2019-03-06T13:01:45.587Z,5.67
2019-03-06T13:04:12.388Z,4.22
2019-03-06T13:06:38.794Z,4.17
2019-03-06T13:09:11.156Z,4.20
2019-03-06T13:11:37.748Z,4.80
2019-03-06T13:14:04.657Z,4.40
2019-03-06T13:16:31.630Z,4.10
2019-03-06T13:18:58.679Z,4.87
2019-03-06T13:21:25.283Z,4.25
2019-03-06T13:23:51.696Z,4.12
2019-03-06T13:26:18.223Z,4.58
2019-03-06T13:28:44.536Z,4.40
2019-03-06T13:31:11.130Z,4.47
2019-03-06T13:33:42.058Z,3.95
2019-03-06T13:36:09.163Z,4.10
2019-03-06T13:38:35.500Z,4.65
2019-03-06T13:41:01.967Z,4.72
2019-03-06T13:43:28.497Z,4.42
2019-03-06T13:45:54.911Z,4.40
2019-03-06T13:48:21.309Z,4.60
2019-03-06T13:50:47.850Z,4.90
2019-03-06T13:53:20.217Z,5.10
2019-03-06T13:55:42.679Z,5.05
2019-03-06T13:58:09.287Z,4.83
2019-03-06T14:00:35.745Z,4.75
2019-03-06T14:03:02.608Z,4.58
2019-03-06T14:05:29.365Z,5.03
2019-03-06T14:07:56.933Z,4.90
2019-03-06T14:10:24.685Z,4.83
2019-03-06T14:12:51.463Z,5.08
2019-03-06T14:15:18.620Z,4.95
2019-03-06T14:17:45.372Z,4.92
2019-03-06T14:20:20.194Z,4.62
2019-03-06T14:22:46.916Z,5.05
2019-03-06T14:25:14.708Z,4.70
2019-03-06T14:27:42.005Z,4.80
2019-03-06T14:30:21.161Z,4.42
2019-03-06T14:32:48.527Z,3.87
2019-03-06T14:35:15.336Z,3.70
2019-03-06T14:37:42.238Z,5.95
2019-03-06T14:40:23.271Z,4.40
2019-03-06T14:42:50.376Z,3.90
2019-03-06T14:45:17.209Z,5.33
2019-03-06T14:47:43.699Z,5.28
2019-03-06T14:50:10.351Z,5.03
2019-03-06T14:52:36.957Z,4.80
2019-03-06T14:55:09.585Z,3.92
2019-03-06T14:57:36.173Z,4.00
2019-03-06T15:00:06.771Z,4.15
2019-03-06T15:02:34.716Z,4.20
2019-03-06T15:05:01.557Z,4.60
2019-03-06T15:07:28.217Z,4.60
2019-03-06T15:09:54.605Z,4.55
2019-03-06T15:12:21.242Z,3.95
2019-03-06T15:14:47.833Z,4.12
2019-03-06T15:17:14.491Z,5.28
2019-03-06T15:19:40.914Z,5.35
2019-03-06T15:22:07.538Z,5.35
2019-03-06T15:24:40.935Z,4.87
2019-03-06T15:27:02.360Z,5.35
2019-03-06T15:29:28.807Z,4.58
2019-03-06T15:31:55.545Z,4.28
2019-03-06T15:34:23.007Z,5.05
2019-03-06T15:36:49.722Z,4.90
2019-03-06T15:39:26.213Z,5.28
2019-03-06T15:42:00.071Z,6.80
2019-03-06T15:44:21.348Z,7.92
2019-03-06T15:46:48.173Z,8.73
2019-03-06T15:49:14.568Z,8.15
2019-03-06T15:51:41.207Z,9.98
2019-03-06T15:54:08.040Z,9.90
2019-03-06T15:56:34.780Z,10.70
2019-03-06T15:59:01.492Z,9.13
2019-03-06T16:01:28.723Z,10.05
2019-03-06T16:03:55.446Z,9.05
2019-03-06T16:06:22.072Z,8.70
2019-03-06T16:08:48.670Z,8.80
2019-03-06T16:11:15.202Z,7.78
2019-03-06T16:13:41.761Z,8.05
2019-03-06T16:16:08.283Z,7.67
2019-03-06T16:18:34.722Z,8.78
2019-03-06T16:21:01.624Z,11.50
2019-03-06T16:23:28.271Z,12.13
2019-03-06T16:25:54.741Z,21.05
2019-03-06T16:28:21.214Z,20.32
2019-03-06T16:30:47.607Z,16.25
2019-03-06T16:33:14.115Z,16.37
2019-03-06T16:35:40.805Z,28.80
2019-03-06T16:38:07.233Z,31.62
2019-03-06T16:40:33.898Z,30.32
2019-03-06T16:43:00.317Z,23.38
2019-03-06T16:45:28.843Z,22.45
2019-03-06T16:47:55.452Z,21.05
2019-03-06T16:50:22.559Z,20.90
2019-03-06T16:52:49.225Z,19.42
2019-03-06T16:55:17.500Z,19.15
2019-03-06T16:57:44.587Z,16.95
2019-03-06T17:00:32.011Z,14.58
2019-03-06T17:03:09.195Z,13.43
2019-03-06T17:05:35.987Z,14.38
2019-03-06T17:08:03.574Z,17.98
2019-03-06T17:10:31.975Z,22.73
2019-03-06T17:12:58.652Z,21.60
2019-03-06T17:15:27.779Z,22.45
2019-03-06T17:17:54.771Z,22.15
2019-03-06T17:20:29.461Z,23.57
2019-03-06T17:22:56.934Z,31.50
2019-03-06T17:25:25.946Z,37.78
2019-03-06T17:27:52.172Z,51.77
2019-03-06T17:30:26.505Z,51.18
2019-03-06T17:32:58.519Z,35.95
2019-03-06T17:35:26.256Z,30.27
2019-03-06T17:37:52.882Z,28.25
2019-03-06T17:40:19.688Z,32.65
2019-03-06T17:42:46.293Z,43.23
2019-03-06T17:45:15.133Z,55.63
2019-03-06T17:47:41.927Z,87.67
2019-03-06T17:50:11.907Z,84.50
2019-03-06T17:52:38.622Z,79.40
2019-03-06T17:55:07.184Z,56.10
2019-03-06T17:57:33.576Z,59.93
2019-03-06T17:59:59.917Z,70.70
2019-03-06T18:02:26.679Z,77.67
2019-03-06T18:04:53.167Z,75.30
2019-03-06T18:07:19.455Z,88.70
2019-03-06T18:09:46.111Z,73.83
2019-03-06T18:12:12.508Z,70.12
2019-03-06T18:14:39.127Z,79.20
2019-03-06T18:17:05.616Z,78.65
2019-03-06T18:19:32.044Z,86.35
2019-03-06T18:21:58.447Z,69.50
2019-03-06T18:24:25.183Z,74.40
2019-03-06T18:26:51.639Z,73.22
2019-03-06T18:29:18.148Z,71.80
2019-03-06T18:31:44.686Z,64.58
2019-03-06T18:34:11.193Z,57.98
2019-03-06T18:36:38.731Z,63.83
2019-03-06T18:39:07.366Z,78.55
2019-03-06T18:41:33.653Z,84.32
2019-03-06T18:44:00.232Z,80.90
2019-03-06T18:46:26.852Z,89.03
2019-03-06T18:48:53.189Z,56.83
2019-03-06T18:51:19.499Z,43.98
2019-03-06T18:53:45.918Z,37.93
2019-03-06T18:56:12.440Z,30.80
2019-03-06T18:58:38.788Z,37.03
2019-03-06T19:01:05.597Z,38.80
2019-03-06T19:03:32.303Z,27.07
2019-03-06T19:05:58.945Z,27.58
2019-03-06T19:08:31.257Z,20.10
2019-03-06T19:10:54.025Z,23.05
2019-03-06T19:13:20.838Z,19.05
2019-03-06T19:15:47.267Z,17.17
2019-03-06T19:18:13.601Z,13.45
2019-03-06T19:20:40.308Z,14.30
2019-03-06T19:23:07.036Z,16.42
2019-03-06T19:25:33.635Z,13.22
2019-03-06T19:28:00.090Z,12.63
2019-03-06T19:30:26.791Z,12.50
2019-03-06T19:32:53.613Z,14.60
2019-03-06T19:35:22.419Z,17.45
2019-03-06T19:37:49.123Z,17.77
2019-03-06T19:40:17.609Z,18.37
2019-03-06T19:42:44.548Z,21.12
2019-03-06T19:45:20.165Z,21.17
2019-03-06T19:47:47.028Z,20.82
2019-03-06T19:50:21.910Z,17.48
2019-03-06T19:52:48.693Z,18.23
2019-03-06T19:55:17.150Z,16.80
2019-03-06T19:58:00.002Z,18.15
2019-03-06T20:00:29.557Z,20.20
2019-03-06T20:02:56.736Z,21.48
2019-03-06T20:05:28.193Z,23.30
2019-03-06T20:07:54.590Z,22.32
2019-03-06T20:10:21.805Z,17.73
2019-03-06T20:12:48.508Z,17.52
2019-03-06T20:15:17.461Z,18.20
2019-03-06T20:17:44.170Z,15.98
2019-03-06T20:20:15.660Z,15.75
2019-03-06T20:22:42.012Z,11.83
2019-03-06T20:25:10.128Z,11.15
2019-03-06T20:27:36.951Z,8.85
2019-03-06T20:30:14.964Z,10.72
2019-03-06T20:32:41.779Z,8.48
2019-03-06T20:35:08.582Z,8.05
2019-03-06T20:37:35.141Z,10.58
2019-03-06T20:40:02.280Z,5.40
2019-03-06T20:42:29.085Z,5.95
2019-03-06T20:44:55.708Z,5.50
2019-03-06T20:47:22.015Z,5.20
2019-03-06T20:49:48.797Z,5.22
2019-03-06T20:52:15.206Z,5.70
2019-03-06T20:54:41.625Z,6.45
2019-03-06T20:57:08.127Z,7.62
2019-03-06T20:59:36.380Z,6.90
2019-03-06T21:02:02.888Z,7.20
2019-03-06T21:04:29.365Z,6.80
2019-03-06T21:06:55.947Z,7.92
2019-03-06T21:09:22.648Z,7.37
2019-03-06T21:11:49.250Z,7.17
2019-03-06T21:14:15.656Z,8.15
2019-03-06T21:16:42.101Z,8.28
2019-03-06T21:19:08.753Z,8.53
2019-03-06T21:21:35.292Z,8.45
2019-03-06T21:24:01.801Z,7.78
2019-03-06T21:26:28.229Z,7.97
2019-03-06T21:28:54.524Z,8.20
2019-03-06T21:31:20.887Z,9.60
2019-03-06T21:33:47.179Z,9.80
2019-03-06T21:36:13.507Z,7.50
2019-03-06T21:38:39.801Z,7.17
2019-03-06T21:41:06.217Z,6.42
2019-03-06T21:43:32.547Z,6.17
2019-03-06T21:45:58.983Z,6.25
2019-03-06T21:48:25.639Z,6.22
2019-03-06T21:50:52.223Z,5.95
2019-03-06T21:53:18.542Z,6.15
2019-03-06T21:55:44.924Z,6.60
2019-03-06T21:58:11.377Z,6.33
2019-03-06T22:00:37.869Z,6.35
2019-03-06T22:03:04.684Z,6.60
2019-03-06T22:05:31.183Z,6.87
2019-03-06T22:07:57.681Z,6.53
2019-03-06T22:10:24.452Z,6.58
2019-03-06T22:12:50.941Z,6.45
2019-03-06T22:15:22.105Z,7.85
2019-03-06T22:17:48.636Z,8.40
2019-03-06T22:20:15.477Z,7.17
2019-03-06T22:22:42.333Z,6.08
2019-03-06T22:25:14.532Z,7.20
2019-03-06T22:27:41.051Z,8.23
2019-03-06T22:30:17.015Z,8.55
2019-03-06T22:32:43.555Z,8.13
2019-03-06T22:35:10.344Z,7.35
2019-03-06T22:37:36.975Z,6.75
2019-03-06T22:40:08.828Z,7.25
2019-03-06T22:42:35.425Z,6.83
2019-03-06T22:45:02.204Z,5.95
2019-03-06T22:47:28.499Z,6.87
2019-03-06T22:49:56.304Z,7.08
2019-03-06T22:52:22.654Z,5.80
2019-03-06T22:54:49.176Z,6.25
2019-03-06T22:57:15.563Z,6.85
2019-03-06T22:59:42.167Z,5.97
2019-03-06T23:02:09.346Z,5.95
2019-03-06T23:04:35.920Z,6.35
2019-03-06T23:07:02.455Z,6.40
2019-03-06T23:09:28.955Z,6.00
2019-03-06T23:11:55.415Z,6.42
2019-03-06T23:14:21.963Z,6.03
2019-03-06T23:16:49.280Z,5.70
2019-03-06T23:19:15.615Z,6.70
2019-03-06T23:21:42.637Z,7.05
2019-03-06T23:24:08.956Z,7.05
2019-03-06T23:26:42.527Z,6.55
2019-03-06T23:29:03.807Z,6.00
2019-03-06T23:31:30.135Z,6.30
2019-03-06T23:33:56.792Z,6.10
2019-03-06T23:36:23.115Z,7.35
2019-03-06T23:38:49.611Z,5.90
2019-03-06T23:41:16.041Z,5.80
2019-03-06T23:43:42.768Z,5.08
2019-03-06T23:46:09.207Z,5.95
2019-03-06T23:48:35.710Z,5.95
2019-03-06T23:51:04.115Z,6.85
2019-03-06T23:53:32.343Z,5.67
2019-03-06T23:55:58.764Z,5.12
2019-03-06T23:58:25.500Z,4.90
